createdAt,value
2018-03-25T00:00:47.527Z,35.00
2018-03-25T00:05:50.070Z,41.53
2018-03-25T00:10:52.620Z,40.70
2018-03-25T00:15:55.175Z,43.20
2018-03-25T00:20:57.708Z,37.60
2018-03-25T00:26:00.356Z,41.10
2018-03-25T00:31:02.897Z,40.73
2018-03-25T00:36:06.219Z,35.97
2018-03-25T00:41:08.787Z,39.60
2018-03-25T00:46:11.325Z,36.87
2018-03-25T00:51:13.850Z,38.00
2018-03-25T00:56:16.398Z,39.67
2018-03-25T01:01:18.943Z,36.13
2018-03-25T01:06:21.481Z,42.33
2018-03-25T01:11:24.035Z,34.03
2018-03-25T01:16:26.579Z,40.90
2018-03-25T01:21:29.132Z,44.90
2018-03-25T01:26:31.683Z,36.50
2018-03-25T01:31:34.232Z,45.07
2018-03-25T01:36:36.774Z,39.77
2018-03-25T01:41:39.306Z,32.87
2018-03-25T01:46:41.859Z,35.73
2018-03-25T01:51:44.413Z,37.40
2018-03-25T01:56:46.956Z,29.83
2018-03-25T02:01:49.498Z,37.20
2018-03-25T02:06:52.078Z,39.03
2018-03-25T02:11:54.675Z,35.97
2018-03-25T02:16:57.220Z,45.27
2018-03-25T02:21:59.743Z,37.40
2018-03-25T02:27:02.312Z,39.43
2018-03-25T02:32:04.886Z,41.50
2018-03-25T02:37:07.426Z,38.93
2018-03-25T02:42:09.994Z,49.23
2018-03-25T02:47:12.571Z,47.40
2018-03-25T02:52:15.725Z,44.43
2018-03-25T02:57:18.271Z,41.23
2018-03-25T03:02:20.816Z,36.70
2018-03-25T03:07:23.376Z,37.80
2018-03-25T03:12:25.920Z,35.30
2018-03-25T03:17:28.472Z,36.67
2018-03-25T03:22:31.014Z,43.67
2018-03-25T03:27:33.560Z,33.80
2018-03-25T03:32:36.102Z,35.27
2018-03-25T03:37:38.666Z,40.27
2018-03-25T03:42:41.221Z,43.53
2018-03-25T03:47:43.770Z,37.17
2018-03-25T03:52:46.318Z,36.93
2018-03-25T03:57:48.949Z,32.33
2018-03-25T04:02:51.491Z,43.13
2018-03-25T04:07:54.825Z,44.60
2018-03-25T04:12:57.374Z,41.63
2018-03-25T04:17:59.943Z,42.43
2018-03-25T04:23:02.490Z,34.73
2018-03-25T04:28:05.083Z,43.73
2018-03-25T04:33:07.631Z,42.57
2018-03-25T04:38:10.202Z,46.80
2018-03-25T04:43:12.751Z,44.63
2018-03-25T04:48:15.308Z,42.83
2018-03-25T04:53:17.854Z,49.17
2018-03-25T04:58:20.410Z,40.60
2018-03-25T05:03:22.941Z,47.67
2018-03-25T05:08:25.518Z,42.70
2018-03-25T05:13:28.071Z,46.63
2018-03-25T05:18:30.617Z,37.23
2018-03-25T05:23:33.165Z,42.70
2018-03-25T05:28:35.704Z,39.77
2018-03-25T05:33:38.269Z,42.27
2018-03-25T05:38:41.587Z,42.73
2018-03-25T05:43:44.148Z,49.83
2018-03-25T05:48:46.712Z,52.67
2018-03-25T05:53:49.252Z,44.23
2018-03-25T05:58:51.815Z,44.40
2018-03-25T06:03:54.380Z,46.17
2018-03-25T06:08:56.948Z,52.40
2018-03-25T06:13:59.504Z,47.90
2018-03-25T06:19:02.047Z,52.50
2018-03-25T06:24:04.606Z,42.93
2018-03-25T06:29:07.163Z,48.40
2018-03-25T06:34:10.482Z,48.80
2018-03-25T06:39:13.127Z,49.10
2018-03-25T06:44:15.687Z,58.50
2018-03-25T06:49:18.235Z,54.23
2018-03-25T06:54:20.791Z,49.80
2018-03-25T06:59:23.350Z,44.80
2018-03-25T07:04:26.004Z,55.70
2018-03-25T07:09:28.560Z,43.97
2018-03-25T07:14:31.118Z,46.80
2018-03-25T07:19:33.650Z,47.97
2018-03-25T07:24:36.210Z,46.00
2018-03-25T07:29:38.898Z,46.10
2018-03-25T07:34:41.467Z,55.67
2018-03-25T07:39:44.023Z,46.07
2018-03-25T07:44:46.583Z,40.10
2018-03-25T07:49:49.151Z,33.97
2018-03-25T07:54:51.711Z,42.03
2018-03-25T07:59:54.507Z,45.27
2018-03-25T08:04:57.043Z,38.87
2018-03-25T08:09:59.606Z,36.50
2018-03-25T08:15:02.168Z,42.37
2018-03-25T08:20:04.727Z,33.47
2018-03-25T08:25:07.291Z,36.03
2018-03-25T08:30:09.843Z,30.40
2018-03-25T08:35:12.424Z,33.37
2018-03-25T08:40:15.011Z,30.00
2018-03-25T08:45:19.139Z,35.10
2018-03-25T08:50:22.479Z,38.43
2018-03-25T08:55:25.033Z,34.67
2018-03-25T09:00:27.593Z,30.80
2018-03-25T09:05:30.147Z,32.00
2018-03-25T09:10:32.698Z,30.67
2018-03-25T09:15:35.257Z,37.63
2018-03-25T09:20:37.851Z,28.23
2018-03-25T09:25:40.422Z,36.33
2018-03-25T09:30:43.011Z,32.37
2018-03-25T09:35:45.567Z,29.60
2018-03-25T09:40:48.134Z,32.60
2018-03-25T09:45:50.736Z,36.03
2018-03-25T09:50:53.233Z,31.27
2018-03-25T09:55:55.792Z,39.03
2018-03-25T10:01:04.106Z,35.90
2018-03-25T10:06:06.646Z,31.80
2018-03-25T10:11:09.466Z,31.83
2018-03-25T10:16:12.029Z,32.07
2018-03-25T10:21:14.584Z,34.13
2018-03-25T10:26:17.136Z,36.70
2018-03-25T10:31:19.687Z,31.30
2018-03-25T10:36:22.250Z,31.57
2018-03-25T10:41:25.283Z,31.80
2018-03-25T10:46:27.851Z,29.70
2018-03-25T10:51:31.165Z,31.20
2018-03-25T10:56:34.496Z,37.30
2018-03-25T11:01:37.032Z,33.07
2018-03-25T11:06:39.592Z,36.13
2018-03-25T11:11:42.162Z,35.67
2018-03-25T11:16:44.690Z,33.77
2018-03-25T11:21:47.271Z,38.60
2018-03-25T11:26:49.843Z,35.33
2018-03-25T11:31:52.388Z,38.20
2018-03-25T11:36:54.950Z,38.33
2018-03-25T11:41:57.522Z,33.43
2018-03-25T11:47:00.067Z,33.53
2018-03-25T11:52:03.382Z,38.00
2018-03-25T11:57:05.944Z,34.13
2018-03-25T12:02:09.452Z,38.97
2018-03-25T12:07:11.995Z,33.97
2018-03-25T12:12:14.538Z,32.23
2018-03-25T12:17:17.105Z,37.83
2018-03-25T12:22:20.413Z,30.30
2018-03-25T12:27:22.957Z,31.03
2018-03-25T12:32:25.517Z,31.70
2018-03-25T12:37:28.834Z,39.43
2018-03-25T12:42:31.406Z,31.93
2018-03-25T12:47:33.954Z,35.67
2018-03-25T12:52:36.526Z,29.30
2018-03-25T12:57:39.888Z,31.50
2018-03-25T13:02:42.453Z,35.17
2018-03-25T13:07:45.051Z,36.67
2018-03-25T13:12:47.615Z,41.60
2018-03-25T13:17:50.163Z,28.83
2018-03-25T13:22:52.706Z,29.50
2018-03-25T13:27:55.270Z,28.67
2018-03-25T13:32:57.818Z,30.27
2018-03-25T13:38:00.354Z,25.20
2018-03-25T13:43:02.907Z,27.37
2018-03-25T13:48:05.465Z,28.67
2018-03-25T13:53:08.028Z,25.00
2018-03-25T13:58:10.578Z,19.80
2018-03-25T14:03:13.144Z,23.77
2018-03-25T14:08:15.694Z,24.30
2018-03-25T14:13:18.259Z,26.53
2018-03-25T14:18:20.808Z,23.80
2018-03-25T14:23:23.370Z,26.37
2018-03-25T14:28:25.938Z,21.73
2018-03-25T14:33:28.474Z,22.87
2018-03-25T14:38:31.024Z,21.47
2018-03-25T14:43:33.578Z,25.37
2018-03-25T14:48:36.121Z,26.50
2018-03-25T14:53:39.434Z,27.63
2018-03-25T14:58:41.981Z,27.57
2018-03-25T15:03:44.591Z,28.30
2018-03-25T15:08:47.133Z,25.37
2018-03-25T15:13:49.670Z,26.37
2018-03-25T15:18:52.215Z,29.43
2018-03-25T15:23:57.032Z,26.33
2018-03-25T15:28:59.563Z,26.57
2018-03-25T15:34:02.133Z,25.40
2018-03-25T15:39:04.674Z,57.07
2018-03-25T15:44:08.017Z,27.37
2018-03-25T15:49:10.581Z,23.80
2018-03-25T15:54:13.910Z,27.27
2018-03-25T15:59:16.488Z,22.50
2018-03-25T16:04:19.106Z,26.83
2018-03-25T16:09:22.422Z,29.93
2018-03-25T16:14:24.983Z,23.30
2018-03-25T16:19:27.550Z,25.73
2018-03-25T16:24:30.137Z,32.00
2018-03-25T16:29:32.728Z,26.47
2018-03-25T16:34:35.242Z,32.63
2018-03-25T16:39:37.798Z,27.77
2018-03-25T16:44:40.374Z,25.80
2018-03-25T16:49:42.942Z,29.40
2018-03-25T16:54:45.487Z,29.50
2018-03-25T16:59:48.070Z,27.97
2018-03-25T17:04:50.636Z,19.07
2018-03-25T17:09:53.230Z,24.17
2018-03-25T17:14:55.770Z,28.00
2018-03-25T17:19:58.338Z,23.70
2018-03-25T17:25:00.892Z,23.43
2018-03-25T17:30:03.442Z,26.77
2018-03-25T17:35:06.615Z,19.40
2018-03-25T17:40:09.946Z,19.30
2018-03-25T17:45:12.510Z,19.20
2018-03-25T17:50:15.098Z,23.97
2018-03-25T17:55:17.672Z,36.43
2018-03-25T18:00:20.234Z,23.57
2018-03-25T18:05:22.795Z,20.20
2018-03-25T18:10:25.379Z,22.33
2018-03-25T18:15:27.920Z,23.53
2018-03-25T18:20:31.245Z,21.13
2018-03-25T18:25:33.814Z,20.87
2018-03-25T18:30:36.373Z,24.53
2018-03-25T18:35:38.944Z,21.03
2018-03-25T18:40:41.519Z,28.73
2018-03-25T18:45:44.084Z,23.53
2018-03-25T18:50:46.629Z,23.83
2018-03-25T18:55:49.178Z,21.63
2018-03-25T19:00:51.720Z,23.23
2018-03-25T19:05:54.277Z,24.27
2018-03-25T19:10:56.828Z,26.77
2018-03-25T19:15:59.370Z,24.33
2018-03-25T19:21:01.924Z,24.40
2018-03-25T19:26:04.463Z,19.43
2018-03-25T19:31:07.009Z,28.33
2018-03-25T19:36:09.554Z,26.20
2018-03-25T19:41:12.091Z,20.93
2018-03-25T19:46:14.638Z,26.00
2018-03-25T19:51:17.178Z,24.40
2018-03-25T19:56:19.723Z,26.87
2018-03-25T20:01:22.262Z,30.13
2018-03-25T20:06:24.903Z,26.03
2018-03-25T20:11:28.216Z,24.33
2018-03-25T20:16:30.747Z,30.40
2018-03-25T20:21:33.281Z,29.37
2018-03-25T20:26:35.831Z,32.07
2018-03-25T20:31:38.366Z,30.10
2018-03-25T20:36:40.907Z,32.77
2018-03-25T20:41:43.451Z,38.10
2018-03-25T20:46:45.994Z,28.73
2018-03-25T20:51:48.545Z,25.23
2018-03-25T20:56:51.080Z,29.17
2018-03-25T21:01:53.618Z,34.40
2018-03-25T21:06:56.167Z,32.47
2018-03-25T21:11:58.711Z,39.43
2018-03-25T21:17:01.251Z,35.73
2018-03-25T21:22:03.806Z,44.80
2018-03-25T21:27:06.422Z,32.47
2018-03-25T21:32:08.955Z,37.60
2018-03-25T21:37:11.486Z,33.87
2018-03-25T21:42:14.034Z,32.80
2018-03-25T21:47:16.562Z,39.87
2018-03-25T21:52:19.097Z,51.50
2018-03-25T21:57:21.687Z,41.27
2018-03-25T22:02:24.214Z,42.37
2018-03-25T22:07:26.745Z,46.67
2018-03-25T22:12:29.295Z,32.63
2018-03-25T22:17:31.829Z,26.60
2018-03-25T22:22:34.358Z,29.00
2018-03-25T22:27:36.903Z,25.83
2018-03-25T22:32:39.442Z,28.23
2018-03-25T22:37:41.986Z,29.90
2018-03-25T22:42:44.538Z,27.97
2018-03-25T22:47:47.078Z,32.63
2018-03-25T22:52:49.609Z,31.80
2018-03-25T22:57:52.142Z,30.03
2018-03-25T23:02:54.678Z,33.00
2018-03-25T23:07:57.212Z,29.43
2018-03-25T23:12:59.756Z,36.00
2018-03-25T23:18:02.291Z,31.17
2018-03-25T23:23:04.821Z,31.27
2018-03-25T23:28:07.374Z,28.97
2018-03-25T23:33:09.898Z,36.57
2018-03-25T23:38:12.425Z,28.97
2018-03-25T23:43:14.953Z,39.27
2018-03-25T23:48:17.491Z,29.93
2018-03-25T23:53:20.026Z,36.60
2018-03-25T23:58:22.561Z,32.57
